createdAt,value
2023-01-19T00:02:22.091Z,85.31
2023-01-19T00:05:28.004Z,85.38
2023-01-19T00:08:33.496Z,85.36
2023-01-19T00:11:40.286Z,85.39
2023-01-19T00:14:46.171Z,85.42
2023-01-19T00:17:52.581Z,85.39
2023-01-19T00:21:00.005Z,85.37
2023-01-19T00:24:06.577Z,85.36
2023-01-19T00:27:18.963Z,85.37
2023-01-19T00:30:26.143Z,85.39
2023-01-19T00:33:32.009Z,85.38
2023-01-19T00:36:37.977Z,85.36
2023-01-19T00:39:43.913Z,85.36
2023-01-19T00:42:51.650Z,85.36
2023-01-19T00:46:00.353Z,85.37
2023-01-19T00:49:05.640Z,85.38
2023-01-19T00:52:12.204Z,85.40
2023-01-19T00:55:17.904Z,85.37
2023-01-19T00:58:23.150Z,85.40
2023-01-19T01:01:46.234Z,85.51
2023-01-19T01:04:36.673Z,85.46
2023-01-19T01:07:43.765Z,85.39
2023-01-19T01:10:48.765Z,85.31
2023-01-19T01:13:54.143Z,85.27
2023-01-19T01:17:02.238Z,85.33
2023-01-19T01:20:08.505Z,85.29
2023-01-19T01:23:13.809Z,85.37
2023-01-19T01:26:20.381Z,85.49
2023-01-19T01:29:25.879Z,85.48
2023-01-19T01:32:31.331Z,85.43
2023-01-19T01:35:37.180Z,85.34
2023-01-19T01:38:42.073Z,85.25
2023-01-19T01:41:47.460Z,85.22
2023-01-19T01:45:06.577Z,85.14
2023-01-19T01:48:25.412Z,85.08
2023-01-19T01:51:44.801Z,85.00
2023-01-19T01:54:49.601Z,85.01
2023-01-19T01:57:58.001Z,85.07
2023-01-19T02:01:22.169Z,85.06
2023-01-19T02:04:27.813Z,85.03
2023-01-19T02:07:57.727Z,85.03
2023-01-19T02:11:21.211Z,85.00
2023-01-19T02:14:28.785Z,85.01
2023-01-19T02:17:34.662Z,84.99
2023-01-19T02:20:42.034Z,85.00
2023-01-19T02:23:59.221Z,85.01
2023-01-19T02:27:04.920Z,85.03
2023-01-19T02:30:10.254Z,85.09
2023-01-19T02:33:17.539Z,85.03
2023-01-19T02:36:25.250Z,85.02
2023-01-19T02:39:32.689Z,85.12
2023-01-19T02:42:42.389Z,85.19
2023-01-19T02:45:48.565Z,85.19
2023-01-19T02:48:54.172Z,85.16
2023-01-19T02:51:59.789Z,85.13
2023-01-19T02:55:29.249Z,85.16
2023-01-19T02:58:44.483Z,85.25
2023-01-19T03:02:24.096Z,85.25
2023-01-19T03:05:55.765Z,85.24
2023-01-19T03:09:07.862Z,85.30
2023-01-19T03:12:20.573Z,85.22
2023-01-19T03:15:35.026Z,85.26
2023-01-19T03:18:42.205Z,85.24
2023-01-19T03:21:50.769Z,85.30
2023-01-19T03:25:00.187Z,85.30
2023-01-19T03:28:08.620Z,85.36
2023-01-19T03:31:18.394Z,85.38
2023-01-19T03:34:25.488Z,85.41
2023-01-19T03:37:31.384Z,85.36
2023-01-19T03:40:36.191Z,85.33
2023-01-19T03:43:41.716Z,85.33
2023-01-19T03:46:49.690Z,85.34
2023-01-19T03:49:54.714Z,85.33
2023-01-19T03:53:01.481Z,85.34
2023-01-19T03:56:08.613Z,85.33
2023-01-19T03:59:14.865Z,85.29
2023-01-19T04:02:20.026Z,85.38
2023-01-19T04:05:25.840Z,85.45
2023-01-19T04:08:32.007Z,85.44
2023-01-19T04:11:38.145Z,85.43
2023-01-19T04:14:43.397Z,85.43
2023-01-19T04:17:48.563Z,85.46
2023-01-19T04:20:54.434Z,85.46
2023-01-19T04:24:01.871Z,85.35
2023-01-19T04:27:08.486Z,85.24
2023-01-19T04:30:14.752Z,85.19
2023-01-19T04:33:20.790Z,85.19
2023-01-19T04:36:26.811Z,85.19
2023-01-19T04:39:31.850Z,85.14
2023-01-19T04:42:39.555Z,85.06
2023-01-19T04:45:46.370Z,85.09
2023-01-19T04:48:53.570Z,85.07
2023-01-19T04:52:00.834Z,84.98
2023-01-19T04:55:05.449Z,84.92
2023-01-19T04:58:11.672Z,84.86
2023-01-19T05:01:19.225Z,84.76
2023-01-19T05:04:23.966Z,84.75
2023-01-19T05:07:29.858Z,84.71
2023-01-19T05:10:36.575Z,84.67
2023-01-19T05:13:42.428Z,84.68
2023-01-19T05:16:50.715Z,84.58
2023-01-19T05:19:56.997Z,84.55
2023-01-19T05:23:06.398Z,84.50
2023-01-19T05:26:13.749Z,84.47
2023-01-19T05:29:18.741Z,84.45
2023-01-19T05:32:25.860Z,84.53
2023-01-19T05:35:36.341Z,84.51
2023-01-19T05:38:38.109Z,84.53
2023-01-19T05:41:43.469Z,84.59
2023-01-19T05:44:49.395Z,84.58
2023-01-19T05:47:54.879Z,84.54
2023-01-19T05:51:01.000Z,84.59
2023-01-19T05:54:06.218Z,84.68
2023-01-19T05:57:11.561Z,84.63
2023-01-19T06:00:17.893Z,84.66
2023-01-19T06:03:23.002Z,84.69
2023-01-19T06:06:29.634Z,84.69
2023-01-19T06:09:36.393Z,84.66
2023-01-19T06:12:42.370Z,84.65
2023-01-19T06:15:47.797Z,84.76
2023-01-19T06:18:56.608Z,84.71
2023-01-19T06:22:04.178Z,84.72
2023-01-19T06:25:11.240Z,84.70
2023-01-19T06:28:21.161Z,84.66
2023-01-19T06:31:29.096Z,84.61
2023-01-19T06:34:37.168Z,84.62
2023-01-19T06:37:46.665Z,84.64
2023-01-19T06:40:53.665Z,84.66
2023-01-19T06:44:14.468Z,84.65
2023-01-19T06:47:20.977Z,84.64
2023-01-19T06:50:27.655Z,84.69
2023-01-19T06:53:37.816Z,84.76
2023-01-19T06:56:43.592Z,84.85
2023-01-19T06:59:52.490Z,84.87
2023-01-19T07:02:58.338Z,84.91
2023-01-19T07:06:09.204Z,84.92
2023-01-19T07:09:18.573Z,84.96
2023-01-19T07:12:29.282Z,85.00
2023-01-19T07:15:36.156Z,85.00
2023-01-19T07:18:42.714Z,85.01
2023-01-19T07:21:49.617Z,85.03
2023-01-19T07:24:57.658Z,85.07
2023-01-19T07:28:02.492Z,85.08
2023-01-19T07:31:09.287Z,85.17
2023-01-19T07:34:16.286Z,85.25
2023-01-19T07:38:04.962Z,85.28
2023-01-19T07:41:26.144Z,85.36
2023-01-19T07:44:35.695Z,85.34
2023-01-19T07:50:54.898Z,85.41
2023-01-19T07:54:02.127Z,85.46
2023-01-19T07:57:11.027Z,85.53
2023-01-19T08:00:16.465Z,85.56
2023-01-19T08:03:22.138Z,85.54
2023-01-19T08:06:37.592Z,85.58
2023-01-19T08:09:44.955Z,85.55
2023-01-19T08:12:51.480Z,85.54
2023-01-19T08:15:59.418Z,85.52
2023-01-19T08:19:05.253Z,85.53
2023-01-19T08:22:13.811Z,85.45
2023-01-19T08:25:21.167Z,85.46
2023-01-19T08:28:30.869Z,85.54
2023-01-19T08:31:40.241Z,85.54
2023-01-19T08:34:46.981Z,85.48
2023-01-19T08:37:54.654Z,85.51
2023-01-19T08:41:04.893Z,85.45
2023-01-19T08:44:12.167Z,85.54
2023-01-19T08:47:19.876Z,85.60
2023-01-19T08:50:26.602Z,85.55
2023-01-19T08:53:32.874Z,85.55
2023-01-19T08:56:41.363Z,85.53
2023-01-19T08:59:45.978Z,85.57
2023-01-19T09:02:52.502Z,85.70
2023-01-19T09:05:59.141Z,85.64
2023-01-19T09:09:05.936Z,85.71
2023-01-19T09:12:10.712Z,85.68
2023-01-19T09:15:17.511Z,85.71
2023-01-19T09:18:25.818Z,85.75
2023-01-19T09:21:31.446Z,85.65
2023-01-19T09:24:38.708Z,85.66
2023-01-19T09:27:49.806Z,85.68
2023-01-19T09:30:58.744Z,85.73
2023-01-19T09:34:05.993Z,85.72
2023-01-19T09:37:12.423Z,85.67
2023-01-19T09:40:22.510Z,85.64
2023-01-19T09:43:49.824Z,85.62
2023-01-19T09:46:58.050Z,85.62
2023-01-19T09:50:14.741Z,85.64
2023-01-19T09:53:30.649Z,85.59
2023-01-19T09:56:35.892Z,85.60
2023-01-19T09:59:46.332Z,85.48
2023-01-19T10:03:01.601Z,85.44
2023-01-19T10:06:19.664Z,85.52
2023-01-19T10:09:49.315Z,85.53
2023-01-19T10:13:40.339Z,85.50
2023-01-19T10:17:07.548Z,85.41
2023-01-19T10:20:16.377Z,85.38
2023-01-19T10:23:29.747Z,85.37
2023-01-19T10:26:53.099Z,85.32
2023-01-19T10:29:59.329Z,85.30
2023-01-19T10:33:04.373Z,85.27
2023-01-19T10:36:11.656Z,85.15
2023-01-19T10:39:20.263Z,85.18
2023-01-19T10:42:29.542Z,85.19
2023-01-19T10:45:43.430Z,84.92
2023-01-19T10:48:58.115Z,84.77
2023-01-19T10:52:08.632Z,84.66
2023-01-19T10:55:19.669Z,84.62
2023-01-19T10:58:44.005Z,84.51
2023-01-19T11:01:51.568Z,84.25
2023-01-19T11:05:01.799Z,83.95
2023-01-19T11:08:07.392Z,83.94
2023-01-19T11:11:16.696Z,84.11
2023-01-19T11:14:29.766Z,84.07
2023-01-19T11:17:37.183Z,84.16
2023-01-19T11:20:48.141Z,84.19
2023-01-19T11:24:06.185Z,84.16
2023-01-19T11:27:14.187Z,84.14
2023-01-19T11:30:38.639Z,84.07
2023-01-19T11:33:59.340Z,84.02
2023-01-19T11:37:31.309Z,83.95
2023-01-19T11:40:38.465Z,83.90
2023-01-19T11:43:49.242Z,83.78
2023-01-19T11:46:52.356Z,83.74
2023-01-19T11:50:01.747Z,83.80
2023-01-19T11:53:16.420Z,83.83
2023-01-19T11:56:31.327Z,83.75
2023-01-19T11:59:36.439Z,83.72
2023-01-19T12:02:58.254Z,83.75
2023-01-19T12:06:06.576Z,83.71
2023-01-19T12:09:15.849Z,83.81
2023-01-19T12:12:40.749Z,83.79
2023-01-19T12:15:57.282Z,83.75
2023-01-19T12:19:20.258Z,83.73
2023-01-19T12:22:30.310Z,83.74
2023-01-19T12:25:40.980Z,83.69
2023-01-19T12:28:50.982Z,83.65
2023-01-19T12:31:58.576Z,83.57
2023-01-19T12:35:06.770Z,83.54
2023-01-19T12:38:13.033Z,83.60
2023-01-19T12:41:42.476Z,83.57
2023-01-19T12:44:48.049Z,83.54
2023-01-19T12:47:55.436Z,83.58
2023-01-19T12:51:02.389Z,83.58
2023-01-19T12:54:11.090Z,83.49
2023-01-19T12:57:21.626Z,83.56
2023-01-19T13:00:41.630Z,83.63
2023-01-19T13:04:18.857Z,83.77
2023-01-19T13:07:28.155Z,83.90
2023-01-19T13:11:19.141Z,83.99
2023-01-19T13:14:50.509Z,83.97
2023-01-19T13:18:09.771Z,83.88
2023-01-19T13:21:23.180Z,83.83
2023-01-19T13:24:30.781Z,83.74
2023-01-19T13:27:36.652Z,83.69
2023-01-19T13:30:43.613Z,83.75
2023-01-19T13:34:05.785Z,83.71
2023-01-19T13:37:13.358Z,83.67
2023-01-19T13:40:21.661Z,83.57
2023-01-19T13:43:41.333Z,83.48
2023-01-19T13:46:47.147Z,83.39
2023-01-19T13:49:55.737Z,83.34
2023-01-19T13:53:04.004Z,83.37
2023-01-19T13:56:35.650Z,83.40
2023-01-19T13:59:43.367Z,83.38
2023-01-19T14:02:48.704Z,83.40
2023-01-19T14:05:57.635Z,83.34
2023-01-19T14:09:24.392Z,83.29
2023-01-19T14:12:32.911Z,83.29
2023-01-19T14:15:38.774Z,83.29
2023-01-19T14:18:47.468Z,83.40
2023-01-19T14:21:54.647Z,83.46
2023-01-19T14:25:01.034Z,83.53
2023-01-19T14:28:07.028Z,83.61
2023-01-19T14:31:13.608Z,83.69
2023-01-19T14:34:19.201Z,83.72
2023-01-19T14:37:38.552Z,83.74
2023-01-19T14:40:44.419Z,83.76
2023-01-19T14:43:52.351Z,83.77
2023-01-19T14:47:02.160Z,83.73
2023-01-19T14:50:07.853Z,83.73
2023-01-19T14:53:22.959Z,83.73
2023-01-19T14:56:43.991Z,83.73
2023-01-19T14:59:51.721Z,83.73
2023-01-19T15:03:02.799Z,83.75
2023-01-19T15:06:11.373Z,83.72
2023-01-19T15:09:15.737Z,83.71
2023-01-19T15:12:21.905Z,83.73
2023-01-19T15:15:32.593Z,83.72
2023-01-19T15:18:40.382Z,83.72
2023-01-19T15:21:47.586Z,83.69
2023-01-19T15:24:53.103Z,83.70
2023-01-19T15:27:58.957Z,83.79
2023-01-19T15:31:04.875Z,83.81
2023-01-19T15:34:11.219Z,83.84
2023-01-19T15:37:16.383Z,83.81
2023-01-19T15:40:23.535Z,83.79
2023-01-19T15:43:29.511Z,83.75
2023-01-19T15:46:38.011Z,83.71
2023-01-19T15:49:42.839Z,83.60
2023-01-19T15:52:48.705Z,83.57
2023-01-19T15:55:53.840Z,83.55
2023-01-19T15:58:58.696Z,83.56
2023-01-19T16:02:04.464Z,83.54
2023-01-19T16:05:10.553Z,83.61
2023-01-19T16:08:18.296Z,83.62
2023-01-19T16:11:27.014Z,83.62
2023-01-19T16:14:33.323Z,83.57
2023-01-19T16:17:39.428Z,83.56
2023-01-19T16:20:46.056Z,83.50
2023-01-19T16:23:50.969Z,83.47
2023-01-19T16:26:59.386Z,83.45
2023-01-19T16:30:10.811Z,83.39
2023-01-19T16:33:19.377Z,83.35
2023-01-19T16:36:43.881Z,83.27
2023-01-19T16:39:52.047Z,83.19
2023-01-19T16:42:57.485Z,83.17
2023-01-19T16:46:17.489Z,83.06
2023-01-19T16:49:28.680Z,82.98
2023-01-19T16:52:33.778Z,82.93
2023-01-19T16:55:38.785Z,82.94
2023-01-19T16:58:47.467Z,82.92
2023-01-19T17:01:53.436Z,82.94
2023-01-19T17:04:59.401Z,82.94
2023-01-19T17:08:05.474Z,82.94
2023-01-19T17:11:11.287Z,82.94
2023-01-19T17:14:19.002Z,82.89
2023-01-19T17:17:24.604Z,82.85
2023-01-19T17:20:30.582Z,82.80
2023-01-19T17:23:35.557Z,82.80
2023-01-19T17:26:43.006Z,82.77
2023-01-19T17:29:49.931Z,82.71
2023-01-19T17:32:56.517Z,82.71
2023-01-19T17:36:02.294Z,82.69
2023-01-19T17:39:09.593Z,82.68
2023-01-19T17:42:15.860Z,82.69
2023-01-19T17:45:21.914Z,82.67
2023-01-19T17:48:28.726Z,82.63
2023-01-19T17:51:36.124Z,82.61
2023-01-19T17:54:42.410Z,82.61
2023-01-19T17:57:49.363Z,82.59
2023-01-19T18:00:56.455Z,82.62
2023-01-19T18:04:03.353Z,82.62
2023-01-19T18:07:08.534Z,82.61
2023-01-19T18:10:13.555Z,82.60
2023-01-19T18:13:18.842Z,82.61
2023-01-19T18:16:26.057Z,82.66
2023-01-19T18:19:30.949Z,82.64
2023-01-19T18:22:36.149Z,82.64
2023-01-19T18:25:42.227Z,82.62
2023-01-19T18:28:47.107Z,82.60
2023-01-19T18:31:53.276Z,82.58
2023-01-19T18:35:00.448Z,82.53
2023-01-19T18:38:05.980Z,82.53
2023-01-19T18:41:28.979Z,82.51
2023-01-19T18:44:35.613Z,82.52
2023-01-19T18:47:42.270Z,82.55
2023-01-19T18:50:47.735Z,82.50
2023-01-19T18:53:53.825Z,82.48
2023-01-19T18:57:02.044Z,82.46
2023-01-19T19:00:08.829Z,82.48
2023-01-19T19:03:18.358Z,82.49
2023-01-19T19:06:26.819Z,82.47
2023-01-19T19:09:33.755Z,82.44
2023-01-19T19:12:39.591Z,82.43
2023-01-19T19:15:45.905Z,82.45
2023-01-19T19:18:51.172Z,82.49
2023-01-19T19:21:58.962Z,82.51
2023-01-19T19:25:07.289Z,82.51
2023-01-19T19:28:12.716Z,82.51
2023-01-19T19:31:26.733Z,82.54
2023-01-19T19:34:31.308Z,82.53
2023-01-19T19:37:37.269Z,82.55
2023-01-19T19:40:42.581Z,82.54
2023-01-19T19:43:48.487Z,82.56
2023-01-19T19:46:54.801Z,82.54
2023-01-19T19:50:03.001Z,82.50
2023-01-19T19:53:08.996Z,82.46
2023-01-19T19:56:17.120Z,82.47
2023-01-19T19:59:23.133Z,82.43
2023-01-19T20:02:28.930Z,82.40
2023-01-19T20:05:36.180Z,82.39
2023-01-19T20:08:44.227Z,82.40
2023-01-19T20:11:50.573Z,82.40
2023-01-19T20:14:57.782Z,82.43
2023-01-19T20:18:04.103Z,82.46
2023-01-19T20:21:13.688Z,82.41
2023-01-19T20:24:23.972Z,82.41
2023-01-19T20:27:31.619Z,82.41
2023-01-19T20:30:37.302Z,82.40
2023-01-19T20:33:43.665Z,82.39
2023-01-19T20:36:54.594Z,82.38
2023-01-19T20:40:00.301Z,82.35
2023-01-19T20:43:06.667Z,82.31
2023-01-19T20:46:12.280Z,82.33
2023-01-19T20:49:18.214Z,82.31
2023-01-19T20:52:24.624Z,82.26
2023-01-19T20:55:30.838Z,82.23
2023-01-19T20:58:37.751Z,82.19
2023-01-19T21:01:43.693Z,82.15
2023-01-19T21:04:52.431Z,82.11
2023-01-19T21:07:58.164Z,82.14
2023-01-19T21:11:03.625Z,82.19
2023-01-19T21:14:09.080Z,82.19
2023-01-19T21:17:15.808Z,82.22
2023-01-19T21:20:24.320Z,82.20
2023-01-19T21:23:30.010Z,82.19
2023-01-19T21:26:39.305Z,82.23
2023-01-19T21:29:47.172Z,82.26
2023-01-19T21:32:55.516Z,82.25
2023-01-19T21:36:12.243Z,82.22
2023-01-19T21:39:19.719Z,82.17
2023-01-19T21:42:25.584Z,82.10
2023-01-19T21:45:32.309Z,82.06
2023-01-19T21:48:37.743Z,82.11
2023-01-19T21:51:45.567Z,82.11
2023-01-19T21:54:52.451Z,82.06
2023-01-19T21:57:58.932Z,82.06
2023-01-19T22:01:06.017Z,82.05
2023-01-19T22:04:12.078Z,82.07
2023-01-19T22:07:16.761Z,82.03
2023-01-19T22:10:25.024Z,82.02
2023-01-19T22:13:31.397Z,82.08
2023-01-19T22:16:37.740Z,82.10
2023-01-19T22:19:44.394Z,82.05
2023-01-19T22:22:50.156Z,82.03
2023-01-19T22:25:55.385Z,82.01
2023-01-19T22:29:02.182Z,82.00
2023-01-19T22:32:07.882Z,81.98
2023-01-19T22:35:13.100Z,81.98
2023-01-19T22:38:19.569Z,82.04
2023-01-19T22:41:38.533Z,82.02
2023-01-19T22:44:44.285Z,82.09
2023-01-19T22:47:50.805Z,82.10
2023-01-19T22:50:58.377Z,82.14
2023-01-19T22:54:04.018Z,82.14
2023-01-19T22:57:09.224Z,82.17
2023-01-19T23:00:15.315Z,82.23
2023-01-19T23:03:21.811Z,82.20
2023-01-19T23:06:30.416Z,82.25
2023-01-19T23:09:36.175Z,82.33
2023-01-19T23:12:41.680Z,82.32
2023-01-19T23:15:48.488Z,82.31
2023-01-19T23:18:54.843Z,82.31
2023-01-19T23:22:00.802Z,82.29
2023-01-19T23:25:06.031Z,82.23
2023-01-19T23:28:11.533Z,82.07
2023-01-19T23:31:18.350Z,82.08
2023-01-19T23:34:25.314Z,82.01
2023-01-19T23:37:30.974Z,81.98
2023-01-19T23:40:36.538Z,81.98
2023-01-19T23:43:42.638Z,82.01
2023-01-19T23:46:47.809Z,81.99
2023-01-19T23:49:53.825Z,81.97
2023-01-19T23:53:01.265Z,82.01
2023-01-19T23:56:07.642Z,82.01
2023-01-19T23:59:18.324Z,82.05
